Terminal Aerodrome Forecast
Issued by NWS

Home | Current Version | Previous Version | Text Only | Print | Product List | Glossary On
Versions: 1 2 3 4 5 6 7 8 9 10 11 12 13 14 15 16 17 18 19 20
000
FTUS43 KLSX 250500
TAFUIN
TAF
KUIN 250520Z 2506/2606 16010KT P6SM SCT025 OVC050
      TEMPO 2506/2509 2SM -SHRA BR BKN025
     FM250900 22012KT P6SM BKN020
     FM251500 20010KT P6SM SCT035
     FM260000 16010KT P6SM BKN250=

USA.gov is the U.S. government's official web portal to all federal, state and local government web resources and services.